sensor_id;sensor_type;location;lat;lon;timestamp;temperature;humidity
24152;DHT22;12311;50.866;4.332;2023-02-12T00:00:36;9.30;99.90
24152;DHT22;12311;50.866;4.332;2023-02-12T00:03:02;9.30;99.90
24152;DHT22;12311;50.866;4.332;2023-02-12T00:05:28;9.40;99.90
24152;DHT22;12311;50.866;4.332;2023-02-12T00:07:53;9.30;99.90
24152;DHT22;12311;50.866;4.332;2023-02-12T00:10:19;9.30;99.90
24152;DHT22;12311;50.866;4.332;2023-02-12T00:12:45;9.30;99.90
24152;DHT22;12311;50.866;4.332;2023-02-12T00:15:10;9.30;99.90
24152;DHT22;12311;50.866;4.332;2023-02-12T00:17:36;9.30;99.90
24152;DHT22;12311;50.866;4.332;2023-02-12T00:20:02;9.30;99.90
24152;DHT22;12311;50.866;4.332;2023-02-12T00:22:28;9.30;99.90
24152;DHT22;12311;50.866;4.332;2023-02-12T00:24:54;9.40;99.90
24152;DHT22;12311;50.866;4.332;2023-02-12T00:27:20;9.50;99.90
24152;DHT22;12311;50.866;4.332;2023-02-12T00:29:46;9.50;99.90
24152;DHT22;12311;50.866;4.332;2023-02-12T00:32:12;9.50;99.90
24152;DHT22;12311;50.866;4.332;2023-02-12T00:34:39;9.60;99.90
24152;DHT22;12311;50.866;4.332;2023-02-12T00:37:05;9.60;99.90
24152;DHT22;12311;50.866;4.332;2023-02-12T00:39:31;9.60;99.90
24152;DHT22;12311;50.866;4.332;2023-02-12T00:41:57;9.60;99.90
24152;DHT22;12311;50.866;4.332;2023-02-12T00:44:23;9.60;99.90
24152;DHT22;12311;50.866;4.332;2023-02-12T00:46:48;9.60;99.90
24152;DHT22;12311;50.866;4.332;2023-02-12T00:49:14;9.80;99.90
24152;DHT22;12311;50.866;4.332;2023-02-12T00:51:40;9.80;99.90
24152;DHT22;12311;50.866;4.332;2023-02-12T00:54:06;9.80;99.90
24152;DHT22;12311;50.866;4.332;2023-02-12T00:56:31;9.70;99.90
24152;DHT22;12311;50.866;4.332;2023-02-12T00:58:57;9.70;99.90
24152;DHT22;12311;50.866;4.332;2023-02-12T01:01:23;9.60;99.90
24152;DHT22;12311;50.866;4.332;2023-02-12T01:03:49;9.60;99.90
24152;DHT22;12311;50.866;4.332;2023-02-12T01:06:15;9.60;99.90
24152;DHT22;12311;50.866;4.332;2023-02-12T01:08:40;9.70;99.90
24152;DHT22;12311;50.866;4.332;2023-02-12T01:11:06;9.70;99.90
24152;DHT22;12311;50.866;4.332;2023-02-12T01:13:32;9.70;99.90
24152;DHT22;12311;50.866;4.332;2023-02-12T01:18:28;9.70;99.90
24152;DHT22;12311;50.866;4.332;2023-02-12T01:20:53;9.70;99.90
24152;DHT22;12311;50.866;4.332;2023-02-12T01:23:19;9.70;99.90
24152;DHT22;12311;50.866;4.332;2023-02-12T01:25:45;9.70;99.90
24152;DHT22;12311;50.866;4.332;2023-02-12T01:28:10;9.60;99.90
24152;DHT22;12311;50.866;4.332;2023-02-12T01:30:36;9.70;99.90
24152;DHT22;12311;50.866;4.332;2023-02-12T01:33:02;9.90;99.90
24152;DHT22;12311;50.866;4.332;2023-02-12T01:35:27;9.70;99.90
24152;DHT22;12311;50.866;4.332;2023-02-12T01:37:53;9.70;99.90
24152;DHT22;12311;50.866;4.332;2023-02-12T01:40:19;9.70;99.90
24152;DHT22;12311;50.866;4.332;2023-02-12T01:42:44;9.70;99.90
24152;DHT22;12311;50.866;4.332;2023-02-12T01:47:40;9.80;99.90
24152;DHT22;12311;50.866;4.332;2023-02-12T01:50:09;9.70;99.90
24152;DHT22;12311;50.866;4.332;2023-02-12T01:52:38;9.70;99.90
24152;DHT22;12311;50.866;4.332;2023-02-12T01:55:08;9.60;99.90
24152;DHT22;12311;50.866;4.332;2023-02-12T01:57:37;9.70;99.90
24152;DHT22;12311;50.866;4.332;2023-02-12T02:00:06;9.80;99.90
24152;DHT22;12311;50.866;4.332;2023-02-12T02:02:33;9.70;99.90
24152;DHT22;12311;50.866;4.332;2023-02-12T02:05:02;9.70;99.90
24152;DHT22;12311;50.866;4.332;2023-02-12T02:07:29;9.70;99.90
24152;DHT22;12311;50.866;4.332;2023-02-12T02:09:56;9.60;99.90
24152;DHT22;12311;50.866;4.332;2023-02-12T02:12:23;9.60;99.90
24152;DHT22;12311;50.866;4.332;2023-02-12T02:15:08;9.60;99.90
24152;DHT22;12311;50.866;4.332;2023-02-12T02:28:41;9.60;99.90
24152;DHT22;12311;50.866;4.332;2023-02-12T02:33:54;9.60;99.90
24152;DHT22;12311;50.866;4.332;2023-02-12T02:44:25;9.20;99.90
24152;DHT22;12311;50.866;4.332;2023-02-12T02:46:54;9.20;99.90
24152;DHT22;12311;50.866;4.332;2023-02-12T02:49:24;9.40;99.90
24152;DHT22;12311;50.866;4.332;2023-02-12T02:52:00;9.50;99.90
24152;DHT22;12311;50.866;4.332;2023-02-12T02:54:41;9.40;99.90
24152;DHT22;12311;50.866;4.332;2023-02-12T02:57:45;9.50;99.90
24152;DHT22;12311;50.866;4.332;2023-02-12T03:02:39;9.40;99.90
24152;DHT22;12311;50.866;4.332;2023-02-12T03:05:12;9.40;99.90
24152;DHT22;12311;50.866;4.332;2023-02-12T03:07:51;9.40;99.90
24152;DHT22;12311;50.866;4.332;2023-02-12T03:10:24;9.20;99.90
24152;DHT22;12311;50.866;4.332;2023-02-12T03:15:23;9.10;99.90
24152;DHT22;12311;50.866;4.332;2023-02-12T03:17:52;9.20;99.90
24152;DHT22;12311;50.866;4.332;2023-02-12T03:20:21;9.30;99.90
24152;DHT22;12311;50.866;4.332;2023-02-12T03:22:57;9.30;99.90
24152;DHT22;12311;50.866;4.332;2023-02-12T03:25:34;9.30;99.90
24152;DHT22;12311;50.866;4.332;2023-02-12T03:28:08;9.40;99.90
24152;DHT22;12311;50.866;4.332;2023-02-12T03:36:50;9.30;99.90
24152;DHT22;12311;50.866;4.332;2023-02-12T03:41:54;9.30;99.90
24152;DHT22;12311;50.866;4.332;2023-02-12T03:44:54;9.40;99.90
24152;DHT22;12311;50.866;4.332;2023-02-12T03:47:37;9.50;99.90
24152;DHT22;12311;50.866;4.332;2023-02-12T03:52:35;9.40;99.90
24152;DHT22;12311;50.866;4.332;2023-02-12T03:55:01;9.40;99.90
24152;DHT22;12311;50.866;4.332;2023-02-12T03:57:31;9.40;99.90
24152;DHT22;12311;50.866;4.332;2023-02-12T04:00:07;9.50;99.90
24152;DHT22;12311;50.866;4.332;2023-02-12T04:02:33;9.40;99.90
24152;DHT22;12311;50.866;4.332;2023-02-12T04:05:16;9.40;99.90
24152;DHT22;12311;50.866;4.332;2023-02-12T04:07:42;9.50;99.90
24152;DHT22;12311;50.866;4.332;2023-02-12T04:10:08;9.40;99.90
24152;DHT22;12311;50.866;4.332;2023-02-12T04:12:41;9.30;99.90
24152;DHT22;12311;50.866;4.332;2023-02-12T04:17:57;9.20;99.90
24152;DHT22;12311;50.866;4.332;2023-02-12T04:20:48;9.10;99.90
24152;DHT22;12311;50.866;4.332;2023-02-12T04:29:03;9.20;99.90
24152;DHT22;12311;50.866;4.332;2023-02-12T04:34:14;9.30;99.90
24152;DHT22;12311;50.866;4.332;2023-02-12T04:39:36;9.30;99.90
24152;DHT22;12311;50.866;4.332;2023-02-12T04:42:02;9.20;99.90
24152;DHT22;12311;50.866;4.332;2023-02-12T04:44:31;9.10;99.90
24152;DHT22;12311;50.866;4.332;2023-02-12T04:46:58;9.10;99.90
24152;DHT22;12311;50.866;4.332;2023-02-12T04:49:24;9.10;99.90
24152;DHT22;12311;50.866;4.332;2023-02-12T04:51:50;9.10;99.90
24152;DHT22;12311;50.866;4.332;2023-02-12T04:54:18;9.20;99.90
24152;DHT22;12311;50.866;4.332;2023-02-12T04:56:44;9.10;99.90
24152;DHT22;12311;50.866;4.332;2023-02-12T04:59:10;9.20;99.90
24152;DHT22;12311;50.866;4.332;2023-02-12T05:01:37;9.20;99.90
24152;DHT22;12311;50.866;4.332;2023-02-12T05:04:05;9.20;99.90
24152;DHT22;12311;50.866;4.332;2023-02-12T05:06:32;9.30;99.90
24152;DHT22;12311;50.866;4.332;2023-02-12T05:08:58;9.20;99.90
24152;DHT22;12311;50.866;4.332;2023-02-12T05:11:24;9.20;99.90
24152;DHT22;12311;50.866;4.332;2023-02-12T05:13:51;9.10;99.90
24152;DHT22;12311;50.866;4.332;2023-02-12T05:16:18;9.10;99.90
24152;DHT22;12311;50.866;4.332;2023-02-12T05:18:45;9.20;99.90
24152;DHT22;12311;50.866;4.332;2023-02-12T05:21:10;9.20;99.90
24152;DHT22;12311;50.866;4.332;2023-02-12T05:23:38;9.20;99.90
24152;DHT22;12311;50.866;4.332;2023-02-12T05:26:07;9.10;99.90
24152;DHT22;12311;50.866;4.332;2023-02-12T05:28:34;9.10;99.90
24152;DHT22;12311;50.866;4.332;2023-02-12T05:31:02;9.10;99.90
24152;DHT22;12311;50.866;4.332;2023-02-12T05:33:28;9.00;99.90
24152;DHT22;12311;50.866;4.332;2023-02-12T05:35:54;8.90;99.90
24152;DHT22;12311;50.866;4.332;2023-02-12T05:38:20;9.00;99.90
24152;DHT22;12311;50.866;4.332;2023-02-12T05:40:46;9.00;99.90
24152;DHT22;12311;50.866;4.332;2023-02-12T05:43:12;9.10;99.90
24152;DHT22;12311;50.866;4.332;2023-02-12T05:45:38;9.10;99.90
24152;DHT22;12311;50.866;4.332;2023-02-12T05:48:06;9.10;99.90
24152;DHT22;12311;50.866;4.332;2023-02-12T05:50:32;9.00;99.90
24152;DHT22;12311;50.866;4.332;2023-02-12T05:53:01;9.00;99.90
24152;DHT22;12311;50.866;4.332;2023-02-12T05:55:27;9.00;99.90
24152;DHT22;12311;50.866;4.332;2023-02-12T05:57:52;9.10;99.90
24152;DHT22;12311;50.866;4.332;2023-02-12T06:00:18;9.20;99.90
24152;DHT22;12311;50.866;4.332;2023-02-12T06:02:44;9.20;99.90
24152;DHT22;12311;50.866;4.332;2023-02-12T06:05:10;9.10;99.90
24152;DHT22;12311;50.866;4.332;2023-02-12T06:07:35;9.10;99.90
24152;DHT22;12311;50.866;4.332;2023-02-12T06:10:01;9.10;99.90
24152;DHT22;12311;50.866;4.332;2023-02-12T06:12:27;9.00;99.90
24152;DHT22;12311;50.866;4.332;2023-02-12T06:14:52;9.00;99.90
24152;DHT22;12311;50.866;4.332;2023-02-12T06:17:18;9.10;99.90
24152;DHT22;12311;50.866;4.332;2023-02-12T06:19:44;9.10;99.90
24152;DHT22;12311;50.866;4.332;2023-02-12T06:22:09;9.00;99.90
24152;DHT22;12311;50.866;4.332;2023-02-12T06:24:35;9.00;99.90
24152;DHT22;12311;50.866;4.332;2023-02-12T06:27:01;8.90;99.90
24152;DHT22;12311;50.866;4.332;2023-02-12T06:29:27;9.00;99.90
24152;DHT22;12311;50.866;4.332;2023-02-12T06:31:53;9.00;99.90
24152;DHT22;12311;50.866;4.332;2023-02-12T06:34:18;9.20;99.90
24152;DHT22;12311;50.866;4.332;2023-02-12T06:36:45;9.20;99.90
24152;DHT22;12311;50.866;4.332;2023-02-12T06:39:13;9.30;99.90
24152;DHT22;12311;50.866;4.332;2023-02-12T06:41:40;9.20;99.90
24152;DHT22;12311;50.866;4.332;2023-02-12T06:44:06;9.20;99.90
24152;DHT22;12311;50.866;4.332;2023-02-12T06:46:32;9.20;99.90
24152;DHT22;12311;50.866;4.332;2023-02-12T06:48:58;9.10;99.90
24152;DHT22;12311;50.866;4.332;2023-02-12T06:51:25;9.10;99.90
24152;DHT22;12311;50.866;4.332;2023-02-12T06:53:53;9.10;99.90
24152;DHT22;12311;50.866;4.332;2023-02-12T06:56:20;9.20;99.90
24152;DHT22;12311;50.866;4.332;2023-02-12T06:58:52;9.20;99.90
24152;DHT22;12311;50.866;4.332;2023-02-12T07:01:19;9.10;99.90
24152;DHT22;12311;50.866;4.332;2023-02-12T07:03:51;9.20;99.90
24152;DHT22;12311;50.866;4.332;2023-02-12T07:06:18;9.20;99.90
24152;DHT22;12311;50.866;4.332;2023-02-12T07:08:44;9.20;99.90
24152;DHT22;12311;50.866;4.332;2023-02-12T07:11:10;9.20;99.90
24152;DHT22;12311;50.866;4.332;2023-02-12T07:13:35;9.20;99.90
24152;DHT22;12311;50.866;4.332;2023-02-12T07:16:06;9.30;99.90
24152;DHT22;12311;50.866;4.332;2023-02-12T07:18:33;9.30;99.90
24152;DHT22;12311;50.866;4.332;2023-02-12T07:20:59;9.40;99.90
24152;DHT22;12311;50.866;4.332;2023-02-12T07:23:25;9.40;99.90
24152;DHT22;12311;50.866;4.332;2023-02-12T07:25:58;9.30;99.90
24152;DHT22;12311;50.866;4.332;2023-02-12T07:28:25;9.20;99.90
24152;DHT22;12311;50.866;4.332;2023-02-12T07:30:52;9.20;99.90
24152;DHT22;12311;50.866;4.332;2023-02-12T07:33:18;9.20;99.90
24152;DHT22;12311;50.866;4.332;2023-02-12T07:35:44;9.20;99.90
24152;DHT22;12311;50.866;4.332;2023-02-12T07:38:10;9.20;99.90
24152;DHT22;12311;50.866;4.332;2023-02-12T07:40:35;9.20;99.90
24152;DHT22;12311;50.866;4.332;2023-02-12T07:43:01;9.40;99.90
24152;DHT22;12311;50.866;4.332;2023-02-12T07:45:27;9.40;99.90
24152;DHT22;12311;50.866;4.332;2023-02-12T07:47:52;9.50;99.90
24152;DHT22;12311;50.866;4.332;2023-02-12T07:50:18;9.60;99.90
24152;DHT22;12311;50.866;4.332;2023-02-12T07:52:44;9.70;99.90
24152;DHT22;12311;50.866;4.332;2023-02-12T07:55:09;9.50;99.90
24152;DHT22;12311;50.866;4.332;2023-02-12T07:57:35;9.40;99.90
24152;DHT22;12311;50.866;4.332;2023-02-12T08:00:03;9.40;99.90
24152;DHT22;12311;50.866;4.332;2023-02-12T08:02:28;9.40;99.90
24152;DHT22;12311;50.866;4.332;2023-02-12T08:04:57;9.60;99.90
24152;DHT22;12311;50.866;4.332;2023-02-12T08:07:23;9.50;99.90
24152;DHT22;12311;50.866;4.332;2023-02-12T08:09:50;9.60;99.90
24152;DHT22;12311;50.866;4.332;2023-02-12T08:12:16;9.60;99.90
24152;DHT22;12311;50.866;4.332;2023-02-12T08:14:42;9.60;99.90
24152;DHT22;12311;50.866;4.332;2023-02-12T08:17:08;9.60;99.90
24152;DHT22;12311;50.866;4.332;2023-02-12T08:19:34;9.70;99.90
24152;DHT22;12311;50.866;4.332;2023-02-12T08:22:00;9.80;99.90
24152;DHT22;12311;50.866;4.332;2023-02-12T08:24:28;9.80;99.90
24152;DHT22;12311;50.866;4.332;2023-02-12T08:26:55;9.80;99.90
24152;DHT22;12311;50.866;4.332;2023-02-12T08:29:23;9.90;99.90
24152;DHT22;12311;50.866;4.332;2023-02-12T08:31:50;9.90;99.90
24152;DHT22;12311;50.866;4.332;2023-02-12T08:34:30;9.90;99.90
24152;DHT22;12311;50.866;4.332;2023-02-12T08:36:56;9.90;99.90
24152;DHT22;12311;50.866;4.332;2023-02-12T08:39:24;9.90;99.90
24152;DHT22;12311;50.866;4.332;2023-02-12T08:41:50;10.00;99.90
24152;DHT22;12311;50.866;4.332;2023-02-12T08:44:16;10.10;99.90
24152;DHT22;12311;50.866;4.332;2023-02-12T08:46:45;10.20;99.90
24152;DHT22;12311;50.866;4.332;2023-02-12T08:49:13;10.30;99.90
24152;DHT22;12311;50.866;4.332;2023-02-12T08:51:42;10.40;99.90
24152;DHT22;12311;50.866;4.332;2023-02-12T08:54:11;10.50;99.90
24152;DHT22;12311;50.866;4.332;2023-02-12T08:56:38;10.50;99.90
24152;DHT22;12311;50.866;4.332;2023-02-12T08:59:05;10.60;99.90
24152;DHT22;12311;50.866;4.332;2023-02-12T09:01:33;10.70;99.90
24152;DHT22;12311;50.866;4.332;2023-02-12T09:04:00;10.50;99.90
24152;DHT22;12311;50.866;4.332;2023-02-12T09:06:26;10.50;99.90
24152;DHT22;12311;50.866;4.332;2023-02-12T09:08:53;10.70;99.90
24152;DHT22;12311;50.866;4.332;2023-02-12T09:11:21;10.50;99.90
24152;DHT22;12311;50.866;4.332;2023-02-12T09:14:00;10.40;99.90
24152;DHT22;12311;50.866;4.332;2023-02-12T09:16:27;10.40;99.90
24152;DHT22;12311;50.866;4.332;2023-02-12T09:18:53;10.30;99.90
24152;DHT22;12311;50.866;4.332;2023-02-12T09:21:20;10.40;99.90
24152;DHT22;12311;50.866;4.332;2023-02-12T09:23:46;10.60;99.90
24152;DHT22;12311;50.866;4.332;2023-02-12T09:26:15;10.50;99.90
24152;DHT22;12311;50.866;4.332;2023-02-12T09:28:41;10.30;99.90
24152;DHT22;12311;50.866;4.332;2023-02-12T09:31:08;10.30;99.90
24152;DHT22;12311;50.866;4.332;2023-02-12T09:33:35;10.30;99.90
24152;DHT22;12311;50.866;4.332;2023-02-12T09:36:19;10.40;99.90
24152;DHT22;12311;50.866;4.332;2023-02-12T09:38:45;10.50;99.90
24152;DHT22;12311;50.866;4.332;2023-02-12T09:47:11;10.60;99.90
24152;DHT22;12311;50.866;4.332;2023-02-12T09:49:41;10.60;99.90
24152;DHT22;12311;50.866;4.332;2023-02-12T09:52:17;10.70;99.90
24152;DHT22;12311;50.866;4.332;2023-02-12T09:54:43;10.70;99.90
24152;DHT22;12311;50.866;4.332;2023-02-12T09:57:20;10.70;99.90
24152;DHT22;12311;50.866;4.332;2023-02-12T09:59:51;10.80;99.90
24152;DHT22;12311;50.866;4.332;2023-02-12T10:02:19;10.80;99.90
24152;DHT22;12311;50.866;4.332;2023-02-12T10:04:47;10.80;99.90
24152;DHT22;12311;50.866;4.332;2023-02-12T10:13:01;10.60;99.90
24152;DHT22;12311;50.866;4.332;2023-02-12T10:21:58;10.90;99.90
24152;DHT22;12311;50.866;4.332;2023-02-12T10:27:39;11.10;99.90
24152;DHT22;12311;50.866;4.332;2023-02-12T10:32:48;11.30;99.90
24152;DHT22;12311;50.866;4.332;2023-02-12T10:35:17;11.30;99.90
24152;DHT22;12311;50.866;4.332;2023-02-12T10:37:44;11.30;99.90
24152;DHT22;12311;50.866;4.332;2023-02-12T10:42:44;11.40;99.90
24152;DHT22;12311;50.866;4.332;2023-02-12T10:45:19;11.20;99.90
24152;DHT22;12311;50.866;4.332;2023-02-12T10:47:46;11.10;99.90
24152;DHT22;12311;50.866;4.332;2023-02-12T10:50:30;11.20;99.90
24152;DHT22;12311;50.866;4.332;2023-02-12T10:52:59;11.00;99.90
24152;DHT22;12311;50.866;4.332;2023-02-12T10:55:33;11.10;99.90
24152;DHT22;12311;50.866;4.332;2023-02-12T10:58:02;11.00;99.90
24152;DHT22;12311;50.866;4.332;2023-02-12T11:05:41;11.30;99.90
24152;DHT22;12311;50.866;4.332;2023-02-12T11:08:10;11.30;99.90
24152;DHT22;12311;50.866;4.332;2023-02-12T11:10:51;11.30;99.90
24152;DHT22;12311;50.866;4.332;2023-02-12T11:13:27;11.20;99.90
24152;DHT22;12311;50.866;4.332;2023-02-12T11:15:53;11.40;99.90
24152;DHT22;12311;50.866;4.332;2023-02-12T11:18:22;11.50;99.90
24152;DHT22;12311;50.866;4.332;2023-02-12T11:23:30;11.60;99.90
24152;DHT22;12311;50.866;4.332;2023-02-12T11:31:22;11.70;99.90
24152;DHT22;12311;50.866;4.332;2023-02-12T11:34:13;11.70;99.90
24152;DHT22;12311;50.866;4.332;2023-02-12T11:36:44;11.70;99.90
24152;DHT22;12311;50.866;4.332;2023-02-12T11:39:34;11.70;99.90
24152;DHT22;12311;50.866;4.332;2023-02-12T11:42:04;11.60;99.90
24152;DHT22;12311;50.866;4.332;2023-02-12T11:44:38;11.70;99.90
24152;DHT22;12311;50.866;4.332;2023-02-12T11:47:08;11.70;99.90
24152;DHT22;12311;50.866;4.332;2023-02-12T11:52:30;12.00;99.90
24152;DHT22;12311;50.866;4.332;2023-02-12T11:55:04;12.20;99.90
24152;DHT22;12311;50.866;4.332;2023-02-12T11:57:50;12.30;99.90
24152;DHT22;12311;50.866;4.332;2023-02-12T12:00:27;12.30;99.90
24152;DHT22;12311;50.866;4.332;2023-02-12T12:05:53;12.40;99.90
24152;DHT22;12311;50.866;4.332;2023-02-12T12:08:25;12.40;99.90
24152;DHT22;12311;50.866;4.332;2023-02-12T12:13:29;12.20;99.90
24152;DHT22;12311;50.866;4.332;2023-02-12T12:16:10;12.40;99.90
24152;DHT22;12311;50.866;4.332;2023-02-12T12:19:03;12.20;99.90
24152;DHT22;12311;50.866;4.332;2023-02-12T12:22:15;12.20;99.90
24152;DHT22;12311;50.866;4.332;2023-02-12T12:24:50;12.30;99.90
24152;DHT22;12311;50.866;4.332;2023-02-12T12:41:32;12.30;99.90
24152;DHT22;12311;50.866;4.332;2023-02-12T12:47:21;12.20;99.90
24152;DHT22;12311;50.866;4.332;2023-02-12T12:55:53;12.10;99.90
24152;DHT22;12311;50.866;4.332;2023-02-12T13:04:31;11.80;99.90
24152;DHT22;12311;50.866;4.332;2023-02-12T13:15:32;12.00;99.90
24152;DHT22;12311;50.866;4.332;2023-02-12T13:18:14;12.00;99.90
24152;DHT22;12311;50.866;4.332;2023-02-12T13:26:10;11.90;99.90
24152;DHT22;12311;50.866;4.332;2023-02-12T13:28:52;11.80;99.90
24152;DHT22;12311;50.866;4.332;2023-02-12T13:31:21;11.80;99.90
24152;DHT22;12311;50.866;4.332;2023-02-12T13:36:14;11.80;99.90
24152;DHT22;12311;50.866;4.332;2023-02-12T13:39:25;11.60;99.90
24152;DHT22;12311;50.866;4.332;2023-02-12T13:41:51;11.60;99.90
24152;DHT22;12311;50.866;4.332;2023-02-12T13:44:31;11.50;99.90
24152;DHT22;12311;50.866;4.332;2023-02-12T13:47:19;11.50;99.90
24152;DHT22;12311;50.866;4.332;2023-02-12T13:53:05;11.50;99.90
24152;DHT22;12311;50.866;4.332;2023-02-12T14:00:59;11.50;99.90
24152;DHT22;12311;50.866;4.332;2023-02-12T14:03:26;11.40;99.90
24152;DHT22;12311;50.866;4.332;2023-02-12T14:06:28;11.40;99.90
24152;DHT22;12311;50.866;4.332;2023-02-12T14:09:17;11.40;99.90
24152;DHT22;12311;50.866;4.332;2023-02-12T14:11:49;11.30;99.90
24152;DHT22;12311;50.866;4.332;2023-02-12T14:14:45;11.20;99.90
24152;DHT22;12311;50.866;4.332;2023-02-12T14:24:51;11.60;99.90
24152;DHT22;12311;50.866;4.332;2023-02-12T14:27:40;11.60;99.90
24152;DHT22;12311;50.866;4.332;2023-02-12T14:35:42;11.30;99.90
24152;DHT22;12311;50.866;4.332;2023-02-12T14:41:42;11.30;99.90
24152;DHT22;12311;50.866;4.332;2023-02-12T14:47:02;11.40;99.90
24152;DHT22;12311;50.866;4.332;2023-02-12T14:54:48;11.30;99.90
24152;DHT22;12311;50.866;4.332;2023-02-12T14:57:25;11.40;99.90
24152;DHT22;12311;50.866;4.332;2023-02-12T14:59:59;11.40;99.90
24152;DHT22;12311;50.866;4.332;2023-02-12T15:02:28;11.40;99.90
24152;DHT22;12311;50.866;4.332;2023-02-12T15:05:02;11.30;99.90
24152;DHT22;12311;50.866;4.332;2023-02-12T15:07:34;11.20;99.90
24152;DHT22;12311;50.866;4.332;2023-02-12T15:10:14;11.30;99.90
24152;DHT22;12311;50.866;4.332;2023-02-12T15:12:50;11.20;99.90
24152;DHT22;12311;50.866;4.332;2023-02-12T15:18:41;11.20;99.90
24152;DHT22;12311;50.866;4.332;2023-02-12T15:20:55;11.30;99.90
24152;DHT22;12311;50.866;4.332;2023-02-12T15:23:33;11.30;99.90
24152;DHT22;12311;50.866;4.332;2023-02-12T15:25:59;11.20;99.90
24152;DHT22;12311;50.866;4.332;2023-02-12T15:28:29;11.20;99.90
24152;DHT22;12311;50.866;4.332;2023-02-12T15:30:59;11.20;99.90
24152;DHT22;12311;50.866;4.332;2023-02-12T15:33:33;11.10;99.90
24152;DHT22;12311;50.866;4.332;2023-02-12T15:36:01;11.00;99.90
24152;DHT22;12311;50.866;4.332;2023-02-12T15:38:36;11.00;99.90
24152;DHT22;12311;50.866;4.332;2023-02-12T15:41:03;10.90;99.90
24152;DHT22;12311;50.866;4.332;2023-02-12T15:43:32;10.90;99.90
24152;DHT22;12311;50.866;4.332;2023-02-12T15:46:02;10.90;99.90
24152;DHT22;12311;50.866;4.332;2023-02-12T15:48:33;11.00;99.90
24152;DHT22;12311;50.866;4.332;2023-02-12T15:51:32;10.80;99.90
24152;DHT22;12311;50.866;4.332;2023-02-12T15:54:00;10.70;99.90
24152;DHT22;12311;50.866;4.332;2023-02-12T15:56:26;10.80;99.90
24152;DHT22;12311;50.866;4.332;2023-02-12T15:58:54;10.70;99.90
24152;DHT22;12311;50.866;4.332;2023-02-12T16:01:26;10.60;99.90
24152;DHT22;12311;50.866;4.332;2023-02-12T16:04:01;10.60;99.90
24152;DHT22;12311;50.866;4.332;2023-02-12T16:06:30;10.70;99.90
24152;DHT22;12311;50.866;4.332;2023-02-12T16:09:07;10.60;99.90
24152;DHT22;12311;50.866;4.332;2023-02-12T16:11:34;10.50;99.90
24152;DHT22;12311;50.866;4.332;2023-02-12T16:14:07;10.50;99.90
24152;DHT22;12311;50.866;4.332;2023-02-12T16:16:44;10.50;99.90
24152;DHT22;12311;50.866;4.332;2023-02-12T16:21:56;10.50;99.90
24152;DHT22;12311;50.866;4.332;2023-02-12T16:27:28;10.50;99.90
24152;DHT22;12311;50.866;4.332;2023-02-12T16:29:57;10.50;99.90
24152;DHT22;12311;50.866;4.332;2023-02-12T16:43:02;10.20;99.90
24152;DHT22;12311;50.866;4.332;2023-02-12T16:48:14;10.30;99.90
24152;DHT22;12311;50.866;4.332;2023-02-12T16:50:50;10.40;99.90
24152;DHT22;12311;50.866;4.332;2023-02-12T16:53:30;10.30;99.90
24152;DHT22;12311;50.866;4.332;2023-02-12T16:55:58;10.30;99.90
24152;DHT22;12311;50.866;4.332;2023-02-12T16:58:24;10.30;99.90
24152;DHT22;12311;50.866;4.332;2023-02-12T17:00:51;10.30;99.90
24152;DHT22;12311;50.866;4.332;2023-02-12T17:03:18;10.20;99.90
24152;DHT22;12311;50.866;4.332;2023-02-12T17:05:44;10.30;99.90
24152;DHT22;12311;50.866;4.332;2023-02-12T17:08:15;10.30;99.90
24152;DHT22;12311;50.866;4.332;2023-02-12T17:10:41;10.30;99.90
24152;DHT22;12311;50.866;4.332;2023-02-12T17:13:06;10.30;99.90
24152;DHT22;12311;50.866;4.332;2023-02-12T17:15:37;10.20;99.90
24152;DHT22;12311;50.866;4.332;2023-02-12T17:18:05;10.00;99.90
24152;DHT22;12311;50.866;4.332;2023-02-12T17:20:32;10.00;99.90
24152;DHT22;12311;50.866;4.332;2023-02-12T17:22:58;10.10;99.90
24152;DHT22;12311;50.866;4.332;2023-02-12T17:25:24;10.10;99.90
24152;DHT22;12311;50.866;4.332;2023-02-12T17:27:50;10.00;99.90
24152;DHT22;12311;50.866;4.332;2023-02-12T17:30:18;10.00;99.90
24152;DHT22;12311;50.866;4.332;2023-02-12T17:32:45;10.00;99.90
24152;DHT22;12311;50.866;4.332;2023-02-12T17:35:10;10.10;99.90
24152;DHT22;12311;50.866;4.332;2023-02-12T17:37:36;10.20;99.90
24152;DHT22;12311;50.866;4.332;2023-02-12T17:40:02;10.20;99.90
24152;DHT22;12311;50.866;4.332;2023-02-12T17:42:28;10.10;99.90
24152;DHT22;12311;50.866;4.332;2023-02-12T17:44:54;10.10;99.90
24152;DHT22;12311;50.866;4.332;2023-02-12T17:47:19;10.10;99.90
24152;DHT22;12311;50.866;4.332;2023-02-12T17:49:45;10.10;99.90
24152;DHT22;12311;50.866;4.332;2023-02-12T17:52:11;10.00;99.90
24152;DHT22;12311;50.866;4.332;2023-02-12T17:54:36;10.10;99.90
24152;DHT22;12311;50.866;4.332;2023-02-12T17:57:02;10.10;99.90
24152;DHT22;12311;50.866;4.332;2023-02-12T17:59:28;10.10;99.90
24152;DHT22;12311;50.866;4.332;2023-02-12T18:01:54;10.10;99.90
24152;DHT22;12311;50.866;4.332;2023-02-12T18:04:20;10.10;99.90
24152;DHT22;12311;50.866;4.332;2023-02-12T18:06:46;10.10;99.90
24152;DHT22;12311;50.866;4.332;2023-02-12T18:09:11;10.10;99.90
24152;DHT22;12311;50.866;4.332;2023-02-12T18:11:37;10.10;99.90
24152;DHT22;12311;50.866;4.332;2023-02-12T18:14:05;10.00;99.90
24152;DHT22;12311;50.866;4.332;2023-02-12T18:16:32;10.20;99.90
24152;DHT22;12311;50.866;4.332;2023-02-12T18:18:59;10.10;99.90
24152;DHT22;12311;50.866;4.332;2023-02-12T18:21:25;10.20;99.90
24152;DHT22;12311;50.866;4.332;2023-02-12T18:23:52;10.10;99.90
24152;DHT22;12311;50.866;4.332;2023-02-12T18:26:20;10.10;99.90
24152;DHT22;12311;50.866;4.332;2023-02-12T18:28:46;10.10;99.90
24152;DHT22;12311;50.866;4.332;2023-02-12T18:31:12;10.00;99.90
24152;DHT22;12311;50.866;4.332;2023-02-12T18:33:38;10.00;99.90
24152;DHT22;12311;50.866;4.332;2023-02-12T18:36:13;10.10;99.90
24152;DHT22;12311;50.866;4.332;2023-02-12T18:38:40;10.10;99.90
24152;DHT22;12311;50.866;4.332;2023-02-12T18:41:15;10.10;99.90
24152;DHT22;12311;50.866;4.332;2023-02-12T18:43:40;10.10;99.90
24152;DHT22;12311;50.866;4.332;2023-02-12T18:46:15;10.00;99.90
24152;DHT22;12311;50.866;4.332;2023-02-12T18:48:41;10.10;99.90
24152;DHT22;12311;50.866;4.332;2023-02-12T18:51:10;10.20;99.90
24152;DHT22;12311;50.866;4.332;2023-02-12T18:53:37;10.10;99.90
24152;DHT22;12311;50.866;4.332;2023-02-12T18:56:04;10.10;99.90
24152;DHT22;12311;50.866;4.332;2023-02-12T18:58:30;10.00;99.90
24152;DHT22;12311;50.866;4.332;2023-02-12T19:00:55;10.00;99.90
24152;DHT22;12311;50.866;4.332;2023-02-12T19:03:21;9.90;99.90
24152;DHT22;12311;50.866;4.332;2023-02-12T19:05:47;9.90;99.90
24152;DHT22;12311;50.866;4.332;2023-02-12T19:08:13;10.10;99.90
24152;DHT22;12311;50.866;4.332;2023-02-12T19:10:40;10.10;99.90
24152;DHT22;12311;50.866;4.332;2023-02-12T19:13:07;10.10;99.90
24152;DHT22;12311;50.866;4.332;2023-02-12T19:15:33;10.00;99.90
24152;DHT22;12311;50.866;4.332;2023-02-12T19:17:58;9.90;99.90